Time;durP1;ratioP1;P1;durP2;ratioP2;P2;SDS_P1;SDS_P2;PMS_P1;PMS_P2;Temp;Humidity;BMP_temperature;BMP_pressure;BME280_temperature;BME280_humidity;BME280_pressure;Samples;Min_cycle;Max_cycle;Signal;HPM_P1;HPM_P2
2022/02/28 00:01:28;;;;;;;11.70;8.40;;;1.20;99.90;;;;;;7382083;19;20288;-70
2022/02/28 00:03:55;;;;;;;13.45;9.25;;;1.20;99.90;;;;;;7381431;19;20332;-68
2022/02/28 00:06:21;;;;;;;14.07;10.32;;;1.20;99.90;;;;;;7383200;19;20353;-69
2022/02/28 00:08:47;;;;;;;13.93;9.27;;;1.20;99.90;;;;;;7383737;19;20312;-70
2022/02/28 00:11:16;;;;;;;9.98;8.13;;;1.20;99.90;;;;;;7383252;19;20328;-67
2022/02/28 00:13:42;;;;;;;10.38;8.32;;;1.20;99.90;;;;;;7377641;19;20336;-67
2022/02/28 00:16:09;;;;;;;10.07;7.82;;;1.10;99.90;;;;;;7374562;19;20328;-70
2022/02/28 00:18:35;;;;;;;9.38;7.25;;;1.10;99.90;;;;;;7380689;19;20411;-68
2022/02/28 00:21:01;;;;;;;13.07;8.63;;;1.20;99.90;;;;;;7383852;19;20992;-67
2022/02/28 00:23:27;;;;;;;12.45;7.97;;;1.30;99.90;;;;;;7380913;19;20339;-68
2022/02/28 00:25:53;;;;;;;8.30;7.32;;;1.30;99.90;;;;;;7386423;19;20348;-68
2022/02/28 00:28:19;;;;;;;8.55;7.53;;;1.30;99.90;;;;;;7383923;19;20310;-70
2022/02/28 00:30:45;;;;;;;13.68;9.90;;;1.40;99.90;;;;;;7382560;19;20324;-69
2022/02/28 00:33:10;;;;;;;13.27;9.43;;;1.40;99.90;;;;;;7376483;19;20392;-68
2022/02/28 00:35:37;;;;;;;13.30;8.77;;;1.30;99.90;;;;;;7385327;19;20333;-68
2022/02/28 00:38:04;;;;;;;10.30;8.35;;;1.20;99.90;;;;;;7383948;19;20850;-70
2022/02/28 00:40:34;;;;;;;10.63;8.13;;;1.30;99.90;;;;;;7384617;19;20941;-68
2022/02/28 00:43:00;;;;;;;15.88;10.77;;;1.20;99.90;;;;;;7374599;19;20312;-67
2022/02/28 00:45:26;;;;;;;13.05;8.65;;;1.20;99.90;;;;;;7379532;19;20320;-67
2022/02/28 00:47:52;;;;;;;10.07;8.07;;;1.20;99.90;;;;;;7382042;19;20321;-67
2022/02/28 00:50:20;;;;;;;15.40;9.45;;;1.20;99.90;;;;;;7378765;19;20336;-68
2022/02/28 00:52:46;;;;;;;11.52;9.70;;;1.20;99.90;;;;;;7377895;19;20908;-68
2022/02/28 00:55:12;;;;;;;15.57;11.03;;;1.20;99.90;;;;;;7375967;19;21238;-67
2022/02/28 00:57:39;;;;;;;13.73;10.13;;;1.10;99.90;;;;;;7377544;19;20296;-68
2022/02/28 01:00:07;;;;;;;13.68;9.82;;;1.10;99.90;;;;;;7382699;19;20316;-67
2022/02/28 01:02:33;;;;;;;12.17;9.10;;;1.00;99.90;;;;;;7380565;19;20316;-67
2022/02/28 01:04:59;;;;;;;8.30;7.40;;;0.90;99.90;;;;;;7380773;19;20301;-67
2022/02/28 01:07:25;;;;;;;13.40;8.43;;;1.00;99.90;;;;;;7380323;19;20400;-68
2022/02/28 01:09:50;;;;;;;9.38;8.27;;;1.10;99.90;;;;;;7382818;19;20967;-67
2022/02/28 01:12:16;;;;;;;10.95;7.63;;;1.20;99.90;;;;;;7376987;19;20332;-67
2022/02/28 01:14:43;;;;;;;13.35;8.23;;;1.30;99.90;;;;;;7376259;19;20467;-67
2022/02/28 01:17:09;;;;;;;12.23;9.25;;;1.30;99.90;;;;;;7380343;19;20335;-67
2022/02/28 01:19:35;;;;;;;13.80;8.57;;;1.30;99.90;;;;;;7378453;19;20317;-66
2022/02/28 01:22:01;;;;;;;10.55;7.68;;;1.20;99.90;;;;;;7379974;19;20312;-67
2022/02/28 01:24:27;;;;;;;13.55;8.95;;;1.20;99.90;;;;;;7379210;19;20337;-67
2022/02/28 01:26:53;;;;;;;11.73;7.85;;;1.20;99.90;;;;;;7375679;19;20315;-68
2022/02/28 01:29:19;;;;;;;11.30;7.82;;;1.10;99.90;;;;;;7379798;19;20327;-68
2022/02/28 01:31:44;;;;;;;13.00;8.07;;;1.20;99.90;;;;;;7379654;19;20324;-69
2022/02/28 01:34:10;;;;;;;10.43;8.07;;;1.20;99.90;;;;;;7377792;19;20304;-68
2022/02/28 01:36:36;;;;;;;12.60;8.02;;;1.20;99.90;;;;;;7378562;19;20319;-68
2022/02/28 01:39:03;;;;;;;10.48;7.82;;;1.20;99.90;;;;;;7381107;19;20337;-67
2022/02/28 01:41:29;;;;;;;10.88;8.13;;;1.20;99.90;;;;;;7377255;19;21238;-67
2022/02/28 01:43:55;;;;;;;12.07;8.87;;;1.10;99.90;;;;;;7382163;19;20361;-67
2022/02/28 01:46:20;;;;;;;11.17;8.30;;;1.10;99.90;;;;;;7385123;19;20323;-67
2022/02/28 01:48:46;;;;;;;12.20;8.23;;;1.10;99.90;;;;;;7384729;19;20304;-68
2022/02/28 01:51:12;;;;;;;11.63;8.40;;;1.00;99.90;;;;;;7387214;19;20304;-70
2022/02/28 01:53:38;;;;;;;10.57;7.67;;;1.10;99.90;;;;;;7381478;19;20341;-70
2022/02/28 01:56:04;;;;;;;10.35;7.45;;;1.00;99.90;;;;;;7386234;19;20332;-67
2022/02/28 01:58:37;;;;;;;11.10;8.38;;;0.90;99.90;;;;;;7381899;19;20404;-68
2022/02/28 02:01:04;;;;;;;10.65;8.27;;;0.90;99.90;;;;;;7381924;19;20328;-67
2022/02/28 02:03:30;;;;;;;10.65;7.93;;;0.70;99.90;;;;;;7382164;19;20316;-67
2022/02/28 02:05:56;;;;;;;11.32;7.85;;;0.70;99.90;;;;;;7384372;19;20317;-68
2022/02/28 02:08:22;;;;;;;12.10;7.80;;;0.60;99.90;;;;;;7382992;19;20983;-68
2022/02/28 02:10:49;;;;;;;9.85;7.53;;;0.60;99.90;;;;;;7384259;19;20308;-67
2022/02/28 02:13:15;;;;;;;13.05;9.07;;;0.70;99.90;;;;;;7379155;19;20301;-66
2022/02/28 02:15:41;;;;;;;9.27;7.95;;;0.50;99.90;;;;;;7382054;19;20807;-67
2022/02/28 02:18:07;;;;;;;14.05;8.32;;;0.50;99.90;;;;;;7380582;19;20368;-67
2022/02/28 02:20:35;;;;;;;14.25;10.00;;;0.50;99.90;;;;;;7381865;19;20332;-66
2022/02/28 02:23:04;;;;;;;12.05;9.00;;;0.50;99.90;;;;;;7378103;19;20320;-68
2022/02/28 02:25:30;;;;;;;10.93;8.30;;;0.40;99.90;;;;;;7375043;19;20327;-71
2022/02/28 02:27:56;;;;;;;10.27;7.78;;;0.30;99.90;;;;;;7376688;19;20330;-68
2022/02/28 02:30:22;;;;;;;12.85;8.35;;;0.30;99.90;;;;;;7379483;19;20309;-67
2022/02/28 02:32:49;;;;;;;14.30;9.40;;;0.30;99.90;;;;;;7376555;19;20769;-68
2022/02/28 02:35:15;;;;;;;11.10;9.03;;;0.40;99.90;;;;;;7377099;19;20353;-67
2022/02/28 02:37:41;;;;;;;12.70;8.63;;;0.40;99.90;;;;;;7374355;19;20324;-68
2022/02/28 02:40:10;;;;;;;12.13;8.27;;;0.40;99.90;;;;;;7379703;19;20300;-68
2022/02/28 02:42:36;;;;;;;14.57;9.00;;;0.40;99.90;;;;;;7377087;19;20403;-67
2022/02/28 02:45:02;;;;;;;11.25;8.00;;;0.30;99.90;;;;;;7377792;19;20396;-67
2022/02/28 02:47:28;;;;;;;10.70;8.60;;;0.20;99.90;;;;;;7377954;19;20308;-67
2022/02/28 02:50:04;;;;;;;10.27;7.68;;;0.30;99.90;;;;;;7277080;19;2004333;-69
2022/02/28 02:52:31;;;;;;;10.35;7.40;;;0.30;99.90;;;;;;7375516;19;20324;-67
2022/02/28 02:54:58;;;;;;;9.90;7.97;;;0.30;99.90;;;;;;7373595;19;20329;-68
2022/02/28 02:57:26;;;;;;;13.18;8.00;;;0.30;99.90;;;;;;7374402;19;20814;-68
2022/02/28 03:00:08;;;;;;;10.73;7.72;;;0.30;99.90;;;;;;7377687;19;20332;-70
2022/02/28 03:02:47;;;;;;;11.37;7.97;;;0.40;99.90;;;;;;7168198;19;2004751;-67
2022/02/28 03:05:13;;;;;;;10.03;7.67;;;0.40;99.90;;;;;;7379014;19;20309;-67
2022/02/28 03:07:39;;;;;;;11.52;8.43;;;0.30;99.90;;;;;;7383322;19;20355;-67
2022/02/28 03:10:06;;;;;;;10.82;8.02;;;0.30;99.90;;;;;;7384839;19;20369;-67
2022/02/28 03:12:32;;;;;;;13.63;9.07;;;0.20;99.90;;;;;;7382154;19;20313;-67
2022/02/28 03:14:59;;;;;;;12.18;8.88;;;0.10;99.90;;;;;;7361980;19;20330;-68
2022/02/28 03:17:25;;;;;;;10.50;8.05;;;0.10;99.90;;;;;;7379862;19;20321;-68
2022/02/28 03:19:50;;;;;;;11.17;8.03;;;0.10;99.90;;;;;;7376140;19;20309;-67
2022/02/28 03:22:17;;;;;;;9.57;7.90;;;0.00;99.90;;;;;;7379242;19;20324;-68
2022/02/28 03:24:45;;;;;;;10.05;7.55;;;0.10;99.90;;;;;;7379673;19;20314;-67
2022/02/28 03:27:11;;;;;;;13.00;8.82;;;0.10;99.90;;;;;;7376593;19;20320;-67
2022/02/28 03:29:39;;;;;;;11.93;8.82;;;0.00;99.90;;;;;;7381187;19;20305;-69
2022/02/28 03:32:05;;;;;;;11.45;8.93;;;0.00;99.90;;;;;;7381268;19;20730;-67
2022/02/28 03:34:31;;;;;;;15.35;9.80;;;-0.10;99.90;;;;;;7378944;19;20313;-67
2022/02/28 03:36:57;;;;;;;10.07;8.50;;;-0.10;99.90;;;;;;7377438;19;20357;-67
2022/02/28 03:39:23;;;;;;;11.07;8.05;;;-0.10;99.90;;;;;;7379616;19;20326;-67
2022/02/28 03:41:53;;;;;;;8.82;7.60;;;-0.10;99.90;;;;;;7377184;19;20681;-68
2022/02/28 03:44:20;;;;;;;13.45;9.20;;;-0.10;99.90;;;;;;7374844;19;20320;-67
2022/02/28 03:46:47;;;;;;;11.50;9.15;;;-0.10;99.90;;;;;;7376133;19;20423;-69
2022/02/28 03:49:14;;;;;;;8.77;7.40;;;-0.10;99.90;;;;;;7378731;19;20336;-69
2022/02/28 03:52:04;;;;;;;11.48;8.05;;;-0.10;99.90;;;;;;7273151;19;2004600;-68
2022/02/28 03:54:59;;;;;;;13.60;10.10;;;-0.10;99.90;;;;;;7275005;19;2005392;-69
2022/02/28 03:57:28;;;;;;;10.38;8.05;;;-0.10;99.90;;;;;;7372595;19;21003;-70
2022/02/28 03:59:54;;;;;;;14.18;10.07;;;-0.20;99.90;;;;;;7377913;19;20326;-68
2022/02/28 04:02:26;;;;;;;10.70;8.32;;;-0.20;99.90;;;;;;7374836;19;20329;-71
2022/02/28 04:04:52;;;;;;;13.88;9.45;;;-0.20;99.90;;;;;;7373572;19;20312;-68
2022/02/28 04:07:18;;;;;;;12.90;8.57;;;-0.20;99.90;;;;;;7373361;19;20835;-70
2022/02/28 04:09:45;;;;;;;11.57;9.35;;;-0.20;99.90;;;;;;7383253;19;20926;-68
2022/02/28 04:12:10;;;;;;;11.77;9.02;;;-0.20;99.90;;;;;;7357353;19;20312;-70
2022/02/28 04:14:41;;;;;;;12.15;8.27;;;-0.20;99.90;;;;;;7384639;19;20616;-68
2022/02/28 04:17:07;;;;;;;16.00;10.95;;;-0.20;99.90;;;;;;7376853;19;20359;-67
2022/02/28 04:19:39;;;;;;;11.87;8.97;;;-0.20;99.90;;;;;;7383761;19;20349;-69
2022/02/28 04:22:09;;;;;;;12.60;9.63;;;-0.30;99.90;;;;;;7378852;19;20308;-68
2022/02/28 04:24:43;;;;;;;12.35;9.15;;;-0.30;99.90;;;;;;7359357;19;20300;-68
2022/02/28 04:27:09;;;;;;;13.80;9.30;;;-0.30;99.90;;;;;;7375806;19;20333;-68
2022/02/28 04:29:36;;;;;;;13.88;9.35;;;-0.30;99.90;;;;;;7385551;19;20347;-67
2022/02/28 04:32:10;;;;;;;15.65;11.10;;;-0.30;99.90;;;;;;7380854;19;20301;-68
2022/02/28 04:34:44;;;;;;;15.23;10.93;;;-0.40;99.90;;;;;;7385690;19;20312;-69
2022/02/28 04:37:10;;;;;;;11.93;9.20;;;-0.40;99.90;;;;;;7387061;19;20321;-67
2022/02/28 04:39:36;;;;;;;11.57;9.47;;;-0.40;99.90;;;;;;7383880;19;20342;-68
2022/02/28 04:42:03;;;;;;;14.18;10.15;;;-0.50;99.90;;;;;;7372356;19;20447;-68
2022/02/28 04:44:31;;;;;;;12.80;10.52;;;-0.50;99.90;;;;;;7382900;19;20305;-68
2022/02/28 04:47:02;;;;;;;13.32;9.95;;;-0.60;99.90;;;;;;7385109;19;20333;-69
2022/02/28 04:50:00;;;;;;;13.27;9.27;;;-0.70;99.90;;;;;;7279137;19;2004426;-67
2022/02/28 04:52:26;;;;;;;11.82;9.65;;;-0.70;99.90;;;;;;7384696;19;20322;-70
2022/02/28 04:54:52;;;;;;;11.48;9.55;;;-0.60;99.90;;;;;;7383705;19;20667;-67
2022/02/28 04:57:19;;;;;;;11.05;8.82;;;-0.70;99.90;;;;;;7380704;19;20321;-70
2022/02/28 04:59:48;;;;;;;12.60;8.55;;;-0.60;99.90;;;;;;7385566;19;20316;-68
2022/02/28 05:02:16;;;;;;;13.77;10.57;;;-0.60;99.90;;;;;;7382396;19;20351;-68
2022/02/28 05:04:54;;;;;;;15.95;11.30;;;-0.60;99.90;;;;;;7380058;19;20313;-68
2022/02/28 05:07:20;;;;;;;13.93;10.83;;;-0.70;99.90;;;;;;7380533;19;20312;-69
2022/02/28 05:09:45;;;;;;;12.30;10.77;;;-0.70;99.90;;;;;;7383417;19;20357;-67
2022/02/28 05:12:14;;;;;;;13.38;10.15;;;-0.80;99.90;;;;;;7380901;19;20312;-69
2022/02/28 05:14:40;;;;;;;12.13;9.98;;;-0.70;99.90;;;;;;7380867;19;20336;-68
2022/02/28 05:17:06;;;;;;;13.05;10.38;;;-0.70;99.90;;;;;;7383137;19;20305;-69
2022/02/28 05:19:36;;;;;;;13.70;9.68;;;-0.70;99.90;;;;;;7382450;19;20325;-68
2022/02/28 05:22:03;;;;;;;14.87;10.50;;;-0.70;99.90;;;;;;7382094;19;20945;-69
2022/02/28 05:24:34;;;;;;;14.75;10.85;;;-0.70;99.90;;;;;;7380154;19;20315;-66
2022/02/28 05:27:00;;;;;;;17.17;12.52;;;-0.70;99.90;;;;;;7381868;19;20324;-69
2022/02/28 05:29:27;;;;;;;18.52;11.70;;;-0.70;99.90;;;;;;7382400;19;20301;-68
2022/02/28 05:31:54;;;;;;;14.03;10.93;;;-0.70;99.90;;;;;;7377999;19;20900;-69
2022/02/28 05:34:55;;;;;;;13.18;10.45;;;-0.70;99.90;;;;;;7177106;19;2004290;-67
2022/02/28 05:37:37;;;;;;;15.85;11.18;;;-0.70;99.90;;;;;;7264100;19;2004404;-68
2022/02/28 05:40:03;;;;;;;16.52;11.23;;;-0.70;99.90;;;;;;7381191;19;20321;-70
2022/02/28 05:42:35;;;;;;;17.73;13.00;;;-0.70;99.90;;;;;;7378559;19;20375;-68
2022/02/28 05:45:01;;;;;;;14.73;11.60;;;-0.80;99.90;;;;;;7377683;19;20312;-68
2022/02/28 05:47:28;;;;;;;14.13;10.98;;;-0.80;99.90;;;;;;7378481;19;20351;-69
2022/02/28 05:49:54;;;;;;;16.70;11.50;;;-0.80;99.90;;;;;;7380050;19;20317;-67
2022/02/28 05:52:20;;;;;;;15.80;11.90;;;-0.90;99.90;;;;;;7376095;19;20319;-67
2022/02/28 05:54:46;;;;;;;13.85;10.98;;;-0.80;99.90;;;;;;7379316;19;20321;-68
2022/02/28 05:57:12;;;;;;;13.55;9.48;;;-0.80;99.90;;;;;;7381054;19;20325;-68
2022/02/28 05:59:38;;;;;;;27.67;19.23;;;-0.70;99.90;;;;;;7382590;19;20321;-69
2022/02/28 06:02:04;;;;;;;18.63;13.43;;;-0.80;99.90;;;;;;7382402;19;20997;-70
2022/02/28 06:04:29;;;;;;;13.65;10.27;;;-0.80;99.90;;;;;;7379690;19;21077;-70
2022/02/28 06:06:55;;;;;;;15.40;10.90;;;-0.70;99.90;;;;;;7377852;19;20331;-70
2022/02/28 06:09:21;;;;;;;13.05;9.80;;;-0.80;99.90;;;;;;7382781;19;20317;-67
2022/02/28 06:11:49;;;;;;;17.03;11.70;;;-0.80;99.90;;;;;;7385413;19;20333;-69
2022/02/28 06:14:15;;;;;;;16.87;11.80;;;-0.80;99.90;;;;;;7383882;19;20320;-68
2022/02/28 06:16:41;;;;;;;13.40;9.82;;;-0.80;99.90;;;;;;7382299;19;20370;-70
2022/02/28 06:19:07;;;;;;;12.20;10.17;;;-0.70;99.90;;;;;;7383730;19;20637;-67
2022/02/28 06:21:33;;;;;;;14.95;10.82;;;-0.70;99.90;;;;;;7381686;19;20396;-68
2022/02/28 06:23:59;;;;;;;14.43;10.90;;;-0.70;99.90;;;;;;7378140;19;21186;-69
2022/02/28 06:26:25;;;;;;;16.43;11.60;;;-0.70;99.90;;;;;;7379000;19;20336;-70
2022/02/28 06:28:50;;;;;;;12.73;10.60;;;-0.70;99.90;;;;;;7380699;19;20316;-67
2022/02/28 06:31:16;;;;;;;15.00;10.85;;;-0.80;99.90;;;;;;7379870;19;20779;-69
2022/02/28 06:33:42;;;;;;;13.93;10.50;;;-0.80;99.90;;;;;;7378125;19;20852;-69
2022/02/28 06:36:08;;;;;;;16.10;12.40;;;-0.80;99.90;;;;;;7379859;19;20687;-69
2022/02/28 06:38:34;;;;;;;12.60;9.60;;;-0.80;99.90;;;;;;7381680;19;20316;-70
2022/02/28 06:41:00;;;;;;;14.75;9.93;;;-0.80;99.90;;;;;;7382295;19;20883;-69
2022/02/28 06:43:26;;;;;;;16.00;11.88;;;-0.80;99.90;;;;;;7379801;19;20337;-70
2022/02/28 06:45:53;;;;;;;13.85;9.77;;;-0.80;99.90;;;;;;7380945;19;20324;-69
2022/02/28 06:48:19;;;;;;;18.20;11.50;;;-0.80;99.90;;;;;;7377397;19;20658;-70
2022/02/28 06:50:45;;;;;;;13.80;10.27;;;-0.80;99.90;;;;;;7377604;19;20320;-70
2022/02/28 06:53:22;;;;;;;13.18;10.43;;;-0.70;99.90;;;;;;7377941;19;20325;-73
2022/02/28 06:55:49;;;;;;;12.25;9.65;;;-0.70;99.90;;;;;;7275888;19;2004336;-68
2022/02/28 06:58:15;;;;;;;15.00;10.95;;;-0.80;99.90;;;;;;7369781;19;20328;-69
2022/02/28 07:00:41;;;;;;;17.73;11.07;;;-0.80;99.90;;;;;;7382652;19;20312;-68
2022/02/28 07:03:21;;;;;;;14.52;10.73;;;-0.80;99.90;;;;;;7379613;19;20312;-69
2022/02/28 07:05:49;;;;;;;12.13;10.00;;;-0.80;99.90;;;;;;7374637;19;20422;-69
2022/02/28 07:08:19;;;;;;;14.20;10.65;;;-0.80;99.90;;;;;;7377829;19;20958;-68
2022/02/28 07:10:45;;;;;;;12.88;9.23;;;-0.80;99.90;;;;;;7377397;19;20400;-69
2022/02/28 07:13:11;;;;;;;13.18;9.95;;;-0.80;99.90;;;;;;7375414;19;20414;-68
2022/02/28 07:15:40;;;;;;;16.00;10.32;;;-0.80;99.90;;;;;;7379752;19;20404;-69
2022/02/28 07:18:06;;;;;;;11.98;8.68;;;-0.70;99.90;;;;;;7382072;19;20320;-69
2022/02/28 07:20:32;;;;;;;14.95;9.30;;;-0.60;99.90;;;;;;7382781;19;20312;-71
2022/02/28 07:22:58;;;;;;;15.70;10.90;;;-0.60;99.90;;;;;;7370602;19;20324;-71
2022/02/28 07:25:24;;;;;;;13.95;10.65;;;-0.50;99.90;;;;;;7381115;19;20887;-70
2022/02/28 07:27:50;;;;;;;12.77;9.93;;;-0.40;99.90;;;;;;7378661;19;20322;-68
2022/02/28 07:30:15;;;;;;;11.20;8.87;;;-0.30;99.90;;;;;;7382163;19;20336;-71
2022/02/28 07:32:41;;;;;;;41.63;26.40;;;-0.30;99.90;;;;;;7380071;19;20328;-71
2022/02/28 07:35:07;;;;;;;15.98;12.25;;;-0.30;99.90;;;;;;7380566;19;20349;-67
2022/02/28 07:37:35;;;;;;;31.90;20.95;;;-0.30;99.90;;;;;;7379363;19;20324;-69
2022/02/28 07:40:02;;;;;;;17.97;13.57;;;-0.40;99.90;;;;;;7382508;19;20311;-68
2022/02/28 07:42:28;;;;;;;14.55;11.30;;;-0.30;99.90;;;;;;7380059;19;20329;-68
2022/02/28 07:44:53;;;;;;;14.60;10.63;;;-0.40;99.90;;;;;;7386977;19;20341;-70
2022/02/28 07:47:19;;;;;;;13.00;9.67;;;-0.40;99.90;;;;;;7386966;19;20346;-69
2022/02/28 07:49:45;;;;;;;12.02;8.95;;;-0.40;99.90;;;;;;7387344;19;20324;-69
2022/02/28 07:52:11;;;;;;;14.98;11.30;;;-0.30;99.90;;;;;;7390024;19;20340;-69
2022/02/28 07:54:37;;;;;;;13.55;9.52;;;-0.40;99.90;;;;;;7389485;19;20309;-69
2022/02/28 07:57:03;;;;;;;15.13;10.57;;;-0.40;99.90;;;;;;7388735;19;20328;-71
2022/02/28 07:59:29;;;;;;;21.70;11.37;;;-0.30;99.90;;;;;;7391572;19;20365;-73
2022/02/28 08:01:54;;;;;;;18.23;10.57;;;-0.20;99.90;;;;;;7385059;19;20301;-68
2022/02/28 08:04:20;;;;;;;13.90;10.00;;;-0.20;99.90;;;;;;7385166;19;20304;-69
2022/02/28 08:06:46;;;;;;;13.88;10.88;;;-0.20;99.90;;;;;;7386077;19;20312;-70
2022/02/28 08:09:12;;;;;;;11.73;9.83;;;-0.20;99.90;;;;;;7384424;19;20337;-69
2022/02/28 08:11:38;;;;;;;12.82;9.60;;;-0.10;99.90;;;;;;7384218;19;20321;-71
2022/02/28 08:14:04;;;;;;;12.23;10.20;;;-0.10;99.90;;;;;;7382647;19;20304;-71
2022/02/28 08:16:30;;;;;;;13.65;9.65;;;0.00;99.90;;;;;;7384433;19;20331;-71
2022/02/28 08:18:56;;;;;;;17.45;10.43;;;0.00;99.90;;;;;;7383619;19;20896;-70
2022/02/28 08:21:22;;;;;;;16.87;11.00;;;0.10;99.90;;;;;;7382929;19;20313;-69
2022/02/28 08:23:47;;;;;;;14.60;8.93;;;0.10;99.90;;;;;;7384493;19;20329;-68
2022/02/28 08:26:13;;;;;;;17.23;11.30;;;0.20;99.90;;;;;;7387359;19;20405;-69
2022/02/28 08:28:39;;;;;;;15.83;10.90;;;0.10;99.90;;;;;;7381020;19;20308;-70
2022/02/28 08:31:05;;;;;;;15.10;10.20;;;0.10;99.90;;;;;;7385622;19;20309;-68
2022/02/28 08:33:30;;;;;;;16.63;11.35;;;0.00;99.90;;;;;;7380301;19;20328;-69
2022/02/28 08:35:56;;;;;;;13.33;10.47;;;0.00;99.90;;;;;;7382285;19;20396;-66
2022/02/28 08:38:22;;;;;;;14.63;11.23;;;0.00;99.90;;;;;;7383898;19;20335;-71
2022/02/28 08:40:48;;;;;;;15.57;11.63;;;0.00;99.90;;;;;;7390407;19;20305;-71
2022/02/28 08:43:13;;;;;;;13.80;10.38;;;0.00;99.90;;;;;;7385661;19;20325;-72
2022/02/28 08:45:39;;;;;;;16.27;10.77;;;0.00;99.90;;;;;;7387436;19;20309;-70
2022/02/28 08:48:05;;;;;;;13.03;9.57;;;0.00;99.90;;;;;;7378628;19;20720;-68
2022/02/28 08:50:31;;;;;;;13.88;9.50;;;0.10;99.90;;;;;;7388701;19;20324;-69
2022/02/28 08:52:56;;;;;;;15.45;10.15;;;0.20;99.90;;;;;;7386424;19;20323;-68
2022/02/28 08:55:22;;;;;;;15.32;11.60;;;0.20;99.90;;;;;;7382857;19;20316;-69
2022/02/28 08:57:48;;;;;;;13.20;10.13;;;0.40;99.90;;;;;;7383057;19;20304;-68
2022/02/28 09:00:14;;;;;;;14.83;10.93;;;0.40;99.90;;;;;;7386395;19;20313;-72
2022/02/28 09:02:41;;;;;;;13.13;10.53;;;0.40;99.90;;;;;;7382135;19;20297;-69
2022/02/28 09:05:07;;;;;;;13.13;10.18;;;0.50;99.90;;;;;;7385382;19;20848;-70
2022/02/28 09:07:33;;;;;;;14.52;10.57;;;0.60;99.90;;;;;;7384736;19;20339;-71
2022/02/28 09:09:59;;;;;;;13.90;9.88;;;0.60;99.90;;;;;;7386741;19;20332;-69
2022/02/28 09:12:25;;;;;;;13.43;10.17;;;0.80;99.90;;;;;;7383308;19;20317;-70
2022/02/28 09:14:51;;;;;;;11.18;9.85;;;0.90;99.90;;;;;;7382920;19;20331;-68
2022/02/28 09:17:16;;;;;;;12.38;9.77;;;1.00;99.90;;;;;;7379557;19;20320;-68
2022/02/28 09:19:42;;;;;;;14.80;10.90;;;1.10;99.90;;;;;;7383919;19;20312;-67
2022/02/28 09:22:08;;;;;;;14.05;9.63;;;1.20;99.90;;;;;;7378130;19;20339;-69
2022/02/28 09:24:34;;;;;;;14.57;10.90;;;1.40;99.90;;;;;;7382927;19;20337;-67
2022/02/28 09:27:03;;;;;;;15.20;11.65;;;1.50;99.90;;;;;;7377954;19;20400;-69
2022/02/28 09:29:29;;;;;;;12.60;9.30;;;1.50;99.90;;;;;;7383974;19;20330;-69
2022/02/28 09:31:56;;;;;;;18.60;12.10;;;1.70;99.90;;;;;;7380347;19;20340;-67
2022/02/28 09:34:22;;;;;;;14.05;10.73;;;1.90;99.90;;;;;;7378433;19;20388;-69
2022/02/28 09:36:48;;;;;;;15.87;11.13;;;2.10;99.90;;;;;;7379488;19;20350;-67
2022/02/28 09:39:14;;;;;;;17.27;11.10;;;2.10;99.90;;;;;;7380863;19;21156;-68
2022/02/28 09:42:00;;;;;;;12.77;10.63;;;2.20;99.90;;;;;;7382544;19;20327;-67
2022/02/28 09:44:48;;;;;;;14.40;10.98;;;2.20;99.90;;;;;;7378825;19;20308;-68
2022/02/28 09:47:46;;;;;;;17.52;12.90;;;2.40;99.90;;;;;;7276646;19;2004559;-67
2022/02/28 09:50:41;;;;;;;15.15;11.75;;;2.20;99.90;;;;;;7280769;19;2004512;-70
2022/02/28 09:53:27;;;;;;;14.85;10.50;;;1.90;99.90;;;;;;7276001;19;2004428;-68
2022/02/28 09:56:15;;;;;;;13.68;9.43;;;1.90;99.90;;;;;;7379601;19;20317;-70
2022/02/28 09:59:06;;;;;;;12.98;9.90;;;2.10;99.90;;;;;;7274970;19;2004556;-69
2022/02/28 10:01:32;;;;;;;12.03;9.20;;;2.30;99.90;;;;;;7381922;19;20867;-68
2022/02/28 10:03:58;;;;;;;13.07;10.98;;;2.40;99.90;;;;;;7380064;19;20416;-70
2022/02/28 10:06:24;;;;;;;13.93;9.77;;;2.50;99.90;;;;;;7382513;19;20348;-69
2022/02/28 10:08:51;;;;;;;14.20;10.43;;;2.70;99.90;;;;;;7381354;19;20323;-68
2022/02/28 10:11:31;;;;;;;14.88;10.52;;;2.60;99.90;;;;;;7370764;19;20316;-69
2022/02/28 10:14:01;;;;;;;13.93;10.10;;;2.70;99.90;;;;;;7383525;19;20809;-68
2022/02/28 10:16:31;;;;;;;10.25;8.60;;;2.70;99.90;;;;;;7384023;19;20324;-71
2022/02/28 10:18:57;;;;;;;14.60;10.63;;;2.90;99.90;;;;;;7383145;19;20353;-68
2022/02/28 10:21:40;;;;;;;16.08;11.50;;;3.10;99.90;;;;;;7383159;19;20321;-68
2022/02/28 10:24:20;;;;;;;14.57;10.32;;;2.50;99.90;;;;;;7381118;19;20685;-69
2022/02/28 10:27:06;;;;;;;14.20;10.77;;;2.50;99.90;;;;;;7280448;19;2004403;-68
2022/02/28 10:29:50;;;;;;;10.63;8.85;;;2.50;99.90;;;;;;7384590;19;20876;-69
2022/02/28 10:32:51;;;;;;;13.98;10.15;;;2.90;99.90;;;;;;7175624;19;2004673;-69
2022/02/28 10:35:59;;;;;;;12.70;9.63;;;2.90;99.90;;;;;;7275600;19;2004486;-71
2022/02/28 10:39:07;;;;;;;14.20;10.65;;;3.00;99.90;;;;;;7173838;19;2004423;-70
2022/02/28 10:41:40;;;;;;;14.13;10.25;;;3.00;99.90;;;;;;7376053;19;20851;-69
2022/02/28 10:44:09;;;;;;;13.32;9.85;;;3.10;99.90;;;;;;7376158;19;20809;-68
2022/02/28 10:46:39;;;;;;;11.68;9.20;;;3.10;99.90;;;;;;7376767;19;20320;-68
2022/02/28 10:49:11;;;;;;;10.27;8.43;;;3.30;99.90;;;;;;7375957;19;20337;-71
2022/02/28 10:52:02;;;;;;;11.32;8.93;;;3.40;99.90;;;;;;7377625;19;20345;-70
2022/02/28 10:54:31;;;;;;;12.43;8.50;;;3.60;99.90;;;;;;7274213;19;2004375;-68
2022/02/28 10:57:17;;;;;;;11.07;8.23;;;3.50;99.90;;;;;;7374724;19;20321;-69
2022/02/28 10:59:51;;;;;;;10.63;8.40;;;3.50;99.90;;;;;;7377191;19;20909;-69
2022/02/28 11:02:32;;;;;;;10.98;9.77;;;3.80;99.90;;;;;;7373232;19;20970;-68
2022/02/28 11:05:16;;;;;;;13.35;10.35;;;4.10;99.90;;;;;;7374809;19;20321;-69
2022/02/28 11:07:45;;;;;;;11.80;9.27;;;4.20;99.90;;;;;;7373844;19;20325;-69
2022/02/28 11:10:11;;;;;;;10.52;8.88;;;4.60;99.90;;;;;;7374669;19;20374;-69
2022/02/28 11:12:37;;;;;;;11.00;8.15;;;4.90;99.90;;;;;;7375269;19;20876;-71
2022/02/28 11:15:05;;;;;;;12.27;9.95;;;5.10;99.90;;;;;;7376524;19;21232;-69
2022/02/28 11:17:33;;;;;;;13.10;9.25;;;5.10;99.90;;;;;;7371841;19;20341;-70
2022/02/28 11:20:00;;;;;;;12.88;9.65;;;5.00;99.90;;;;;;7386453;19;20650;-71
2022/02/28 11:22:27;;;;;;;11.27;8.50;;;4.90;99.90;;;;;;7384999;19;20348;-69
2022/02/28 11:24:55;;;;;;;12.73;8.93;;;5.10;99.90;;;;;;7388254;19;20320;-68
2022/02/28 11:27:22;;;;;;;9.00;7.13;;;5.50;99.90;;;;;;7389441;19;20300;-69
2022/02/28 11:30:03;;;;;;;8.57;6.27;;;6.00;99.90;;;;;;7389776;19;20328;-69
2022/02/28 11:32:29;;;;;;;9.60;7.38;;;6.40;99.90;;;;;;7388845;19;20645;-70
2022/02/28 11:35:15;;;;;;;6.32;5.72;;;6.70;99.90;;;;;;7382529;19;20332;-69
2022/02/28 11:37:41;;;;;;;10.57;6.68;;;6.90;99.90;;;;;;7387584;19;20325;-69
2022/02/28 11:40:07;;;;;;;7.43;6.07;;;7.00;99.90;;;;;;7387083;19;20335;-69
2022/02/28 11:43:10;;;;;;;9.13;6.28;;;7.40;99.90;;;;;;7384106;19;20316;-69
2022/02/28 11:45:37;;;;;;;10.00;6.70;;;7.80;99.90;;;;;;7182878;19;2004762;-70
2022/02/28 11:48:35;;;;;;;10.00;6.57;;;7.70;99.90;;;;;;7383701;19;20309;-70
2022/02/28 11:51:06;;;;;;;6.63;5.93;;;7.90;99.90;;;;;;7281496;19;2004299;-71
2022/02/28 11:53:44;;;;;;;6.65;5.93;;;8.10;99.90;;;;;;7377636;19;20381;-73
2022/02/28 11:56:16;;;;;;;7.10;5.40;;;8.10;99.90;;;;;;7282121;19;2004653;-70
2022/02/28 11:58:51;;;;;;;6.50;5.80;;;8.30;99.90;;;;;;7381272;19;20859;-70
2022/02/28 12:01:18;;;;;;;6.25;5.63;;;8.10;99.90;;;;;;7382017;19;20297;-70
2022/02/28 12:03:50;;;;;;;9.57;6.72;;;8.30;99.90;;;;;;7379992;19;20367;-68
2022/02/28 12:06:47;;;;;;;7.95;5.88;;;8.30;99.90;;;;;;7383615;19;20780;-67
2022/02/28 12:09:32;;;;;;;8.57;6.88;;;8.10;99.90;;;;;;7386323;19;20792;-69
2022/02/28 12:12:27;;;;;;;9.25;6.70;;;8.40;99.90;;;;;;7277886;19;2004336;-70
2022/02/28 12:14:57;;;;;;;8.20;6.10;;;8.50;99.90;;;;;;7279392;19;2004293;-69
2022/02/28 12:17:44;;;;;;;9.95;6.30;;;8.50;99.90;;;;;;7378624;19;20321;-73
2022/02/28 12:20:29;;;;;;;9.97;6.13;;;8.50;99.90;;;;;;7381138;19;20324;-72
2022/02/28 12:26:00;;;;;;;9.40;6.43;;;8.90;99.90;;;;;;7282316;19;2004350;-72
2022/02/28 12:28:30;;;;;;;9.00;6.00;;;9.20;99.90;;;;;;7280253;19;2004592;-70
2022/02/28 12:31:06;;;;;;;8.63;6.30;;;9.30;99.90;;;;;;7383020;19;20321;-70
2022/02/28 12:33:34;;;;;;;8.25;6.40;;;9.40;99.90;;;;;;7381409;19;20340;-69
2022/02/28 12:36:00;;;;;;;6.95;5.35;;;9.30;99.90;;;;;;7383349;19;20328;-70
2022/02/28 12:38:27;;;;;;;9.52;6.25;;;9.50;99.90;;;;;;7377093;19;20363;-71
2022/02/28 12:40:56;;;;;;;8.43;5.60;;;9.30;99.90;;;;;;7382735;19;20340;-70
2022/02/28 12:43:23;;;;;;;11.20;6.30;;;9.60;99.90;;;;;;7383155;19;20329;-69
2022/02/28 12:45:57;;;;;;;9.23;6.70;;;9.70;99.90;;;;;;7381345;19;20880;-71
2022/02/28 12:48:23;;;;;;;8.40;6.85;;;9.90;99.90;;;;;;7381457;19;20319;-69
2022/02/28 12:51:01;;;;;;;8.88;6.60;;;9.80;99.90;;;;;;7384602;19;21003;-72
2022/02/28 12:53:28;;;;;;;8.85;6.00;;;9.90;99.90;;;;;;7276108;19;2004437;-71